sensor_id;sensor_type;location;lat;lon;timestamp;P1;durP1;ratioP1;P2;durP2;ratioP2
41875;SDS011;27555;50.808;4.402;2023-01-09T00:01:59;2.22;;;0.70;;
41875;SDS011;27555;50.808;4.402;2023-01-09T00:04:26;2.25;;;0.82;;
41875;SDS011;27555;50.808;4.402;2023-01-09T00:06:53;4.85;;;0.80;;
41875;SDS011;27555;50.808;4.402;2023-01-09T00:09:20;1.13;;;0.60;;
41875;SDS011;27555;50.808;4.402;2023-01-09T00:11:49;2.45;;;0.57;;
41875;SDS011;27555;50.808;4.402;2023-01-09T00:14:16;5.00;;;0.88;;
41875;SDS011;27555;50.808;4.402;2023-01-09T00:16:43;2.15;;;0.60;;
41875;SDS011;27555;50.808;4.402;2023-01-09T00:19:09;1.48;;;0.60;;
41875;SDS011;27555;50.808;4.402;2023-01-09T00:21:37;4.80;;;0.80;;
41875;SDS011;27555;50.808;4.402;2023-01-09T00:24:02;2.78;;;0.68;;
41875;SDS011;27555;50.808;4.402;2023-01-09T00:26:30;1.30;;;0.50;;
41875;SDS011;27555;50.808;4.402;2023-01-09T00:28:56;5.20;;;0.90;;
41875;SDS011;27555;50.808;4.402;2023-01-09T00:31:23;0.65;;;0.52;;
41875;SDS011;27555;50.808;4.402;2023-01-09T00:33:55;4.78;;;0.82;;
41875;SDS011;27555;50.808;4.402;2023-01-09T00:36:30;4.65;;;0.73;;
41875;SDS011;27555;50.808;4.402;2023-01-09T00:38:57;3.22;;;0.80;;
41875;SDS011;27555;50.808;4.402;2023-01-09T00:41:30;4.13;;;1.08;;
41875;SDS011;27555;50.808;4.402;2023-01-09T00:44:31;5.05;;;0.77;;
41875;SDS011;27555;50.808;4.402;2023-01-09T00:47:25;3.70;;;0.82;;
41875;SDS011;27555;50.808;4.402;2023-01-09T00:50:05;4.15;;;0.88;;
41875;SDS011;27555;50.808;4.402;2023-01-09T00:52:35;3.92;;;0.70;;
41875;SDS011;27555;50.808;4.402;2023-01-09T00:55:03;4.95;;;0.80;;
41875;SDS011;27555;50.808;4.402;2023-01-09T00:57:32;4.45;;;0.57;;
41875;SDS011;27555;50.808;4.402;2023-01-09T00:59:58;3.63;;;0.90;;
41875;SDS011;27555;50.808;4.402;2023-01-09T01:02:25;4.55;;;0.73;;
41875;SDS011;27555;50.808;4.402;2023-01-09T01:04:52;5.38;;;1.23;;
41875;SDS011;27555;50.808;4.402;2023-01-09T01:07:39;11.27;;;1.00;;
41875;SDS011;27555;50.808;4.402;2023-01-09T01:12:35;4.55;;;1.02;;
41875;SDS011;27555;50.808;4.402;2023-01-09T01:15:01;2.28;;;0.80;;
41875;SDS011;27555;50.808;4.402;2023-01-09T01:17:32;6.40;;;0.98;;
41875;SDS011;27555;50.808;4.402;2023-01-09T01:19:59;4.25;;;0.70;;
41875;SDS011;27555;50.808;4.402;2023-01-09T01:22:27;9.35;;;1.52;;
41875;SDS011;27555;50.808;4.402;2023-01-09T01:24:56;3.92;;;0.90;;
41875;SDS011;27555;50.808;4.402;2023-01-09T01:27:22;6.82;;;2.30;;
41875;SDS011;27555;50.808;4.402;2023-01-09T01:30:00;13.18;;;0.90;;
41875;SDS011;27555;50.808;4.402;2023-01-09T01:32:33;5.70;;;0.95;;
41875;SDS011;27555;50.808;4.402;2023-01-09T01:35:03;6.18;;;0.98;;
41875;SDS011;27555;50.808;4.402;2023-01-09T01:37:31;5.68;;;0.80;;
41875;SDS011;27555;50.808;4.402;2023-01-09T01:40:14;4.55;;;0.95;;
41875;SDS011;27555;50.808;4.402;2023-01-09T01:42:48;4.15;;;0.93;;
41875;SDS011;27555;50.808;4.402;2023-01-09T01:45:19;1.52;;;0.57;;
41875;SDS011;27555;50.808;4.402;2023-01-09T01:50:50;8.13;;;1.25;;
41875;SDS011;27555;50.808;4.402;2023-01-09T01:53:39;7.10;;;1.30;;
41875;SDS011;27555;50.808;4.402;2023-01-09T01:56:16;4.65;;;0.90;;
41875;SDS011;27555;50.808;4.402;2023-01-09T01:58:47;4.28;;;0.70;;
41875;SDS011;27555;50.808;4.402;2023-01-09T02:01:25;8.17;;;1.13;;
41875;SDS011;27555;50.808;4.402;2023-01-09T02:03:54;4.68;;;0.85;;
41875;SDS011;27555;50.808;4.402;2023-01-09T02:06:20;2.05;;;0.63;;
41875;SDS011;27555;50.808;4.402;2023-01-09T02:08:48;6.13;;;1.13;;
41875;SDS011;27555;50.808;4.402;2023-01-09T02:11:15;4.43;;;0.85;;
41875;SDS011;27555;50.808;4.402;2023-01-09T02:13:44;14.35;;;1.58;;
41875;SDS011;27555;50.808;4.402;2023-01-09T02:27:57;3.97;;;1.15;;
41875;SDS011;27555;50.808;4.402;2023-01-09T02:30:43;7.30;;;1.95;;
41875;SDS011;27555;50.808;4.402;2023-01-09T02:44:34;5.20;;;1.00;;
41875;SDS011;27555;50.808;4.402;2023-01-09T02:47:32;18.73;;;3.00;;
41875;SDS011;27555;50.808;4.402;2023-01-09T02:49:56;6.15;;;0.90;;
41875;SDS011;27555;50.808;4.402;2023-01-09T02:55:50;5.60;;;0.80;;
41875;SDS011;27555;50.808;4.402;2023-01-09T03:01:48;7.47;;;1.08;;
41875;SDS011;27555;50.808;4.402;2023-01-09T03:04:26;6.45;;;0.93;;
41875;SDS011;27555;50.808;4.402;2023-01-09T03:07:06;1.85;;;0.88;;
41875;SDS011;27555;50.808;4.402;2023-01-09T03:09:50;2.95;;;0.82;;
41875;SDS011;27555;50.808;4.402;2023-01-09T03:12:23;4.45;;;0.73;;
41875;SDS011;27555;50.808;4.402;2023-01-09T03:14:55;8.65;;;0.95;;
41875;SDS011;27555;50.808;4.402;2023-01-09T03:17:28;10.43;;;1.20;;
41875;SDS011;27555;50.808;4.402;2023-01-09T03:19:59;9.63;;;1.02;;
41875;SDS011;27555;50.808;4.402;2023-01-09T03:22:30;9.23;;;1.85;;
41875;SDS011;27555;50.808;4.402;2023-01-09T03:25:00;3.13;;;0.82;;
41875;SDS011;27555;50.808;4.402;2023-01-09T03:27:57;5.70;;;1.00;;
41875;SDS011;27555;50.808;4.402;2023-01-09T03:30:33;4.63;;;1.33;;
41875;SDS011;27555;50.808;4.402;2023-01-09T03:33:01;5.53;;;1.10;;
41875;SDS011;27555;50.808;4.402;2023-01-09T03:35:28;5.05;;;0.90;;
41875;SDS011;27555;50.808;4.402;2023-01-09T03:37:56;4.68;;;0.82;;
41875;SDS011;27555;50.808;4.402;2023-01-09T03:40:23;7.40;;;1.00;;
41875;SDS011;27555;50.808;4.402;2023-01-09T03:42:48;5.45;;;0.82;;
41875;SDS011;27555;50.808;4.402;2023-01-09T03:45:15;7.82;;;1.33;;
41875;SDS011;27555;50.808;4.402;2023-01-09T03:47:41;10.80;;;1.73;;
41875;SDS011;27555;50.808;4.402;2023-01-09T03:50:11;6.32;;;1.10;;
41875;SDS011;27555;50.808;4.402;2023-01-09T03:52:36;13.95;;;1.25;;
41875;SDS011;27555;50.808;4.402;2023-01-09T03:55:03;4.03;;;1.02;;
41875;SDS011;27555;50.808;4.402;2023-01-09T03:57:30;7.55;;;1.00;;
41875;SDS011;27555;50.808;4.402;2023-01-09T03:59:56;11.98;;;1.77;;
41875;SDS011;27555;50.808;4.402;2023-01-09T04:02:24;6.38;;;0.90;;
41875;SDS011;27555;50.808;4.402;2023-01-09T04:05:07;6.72;;;1.10;;
41875;SDS011;27555;50.808;4.402;2023-01-09T04:07:44;9.13;;;1.73;;
41875;SDS011;27555;50.808;4.402;2023-01-09T04:10:10;8.00;;;1.02;;
41875;SDS011;27555;50.808;4.402;2023-01-09T04:12:57;9.63;;;1.10;;
41875;SDS011;27555;50.808;4.402;2023-01-09T04:15:23;13.95;;;1.55;;
41875;SDS011;27555;50.808;4.402;2023-01-09T04:17:50;10.27;;;2.75;;
41875;SDS011;27555;50.808;4.402;2023-01-09T04:20:15;6.95;;;1.33;;
41875;SDS011;27555;50.808;4.402;2023-01-09T04:22:43;8.15;;;1.30;;
41875;SDS011;27555;50.808;4.402;2023-01-09T04:25:09;9.93;;;1.58;;
41875;SDS011;27555;50.808;4.402;2023-01-09T04:27:35;5.43;;;1.15;;
41875;SDS011;27555;50.808;4.402;2023-01-09T04:30:03;12.80;;;1.40;;
41875;SDS011;27555;50.808;4.402;2023-01-09T04:32:30;8.88;;;1.40;;
41875;SDS011;27555;50.808;4.402;2023-01-09T04:34:58;10.02;;;1.48;;
41875;SDS011;27555;50.808;4.402;2023-01-09T04:37:24;10.57;;;1.45;;
41875;SDS011;27555;50.808;4.402;2023-01-09T04:39:55;8.40;;;1.77;;
41875;SDS011;27555;50.808;4.402;2023-01-09T04:42:26;4.47;;;1.33;;
41875;SDS011;27555;50.808;4.402;2023-01-09T04:44:52;11.00;;;2.22;;
41875;SDS011;27555;50.808;4.402;2023-01-09T04:47:19;9.73;;;1.95;;
41875;SDS011;27555;50.808;4.402;2023-01-09T04:49:45;7.00;;;1.48;;
41875;SDS011;27555;50.808;4.402;2023-01-09T04:52:10;8.23;;;1.23;;
41875;SDS011;27555;50.808;4.402;2023-01-09T04:54:37;10.43;;;1.58;;
41875;SDS011;27555;50.808;4.402;2023-01-09T04:57:09;5.40;;;1.27;;
41875;SDS011;27555;50.808;4.402;2023-01-09T04:59:35;8.25;;;1.48;;
41875;SDS011;27555;50.808;4.402;2023-01-09T05:02:04;8.98;;;1.63;;
41875;SDS011;27555;50.808;4.402;2023-01-09T05:07:04;8.80;;;1.20;;
41875;SDS011;27555;50.808;4.402;2023-01-09T05:09:51;7.05;;;1.10;;
41875;SDS011;27555;50.808;4.402;2023-01-09T05:12:18;4.15;;;0.88;;
41875;SDS011;27555;50.808;4.402;2023-01-09T05:14:46;9.65;;;1.65;;
41875;SDS011;27555;50.808;4.402;2023-01-09T05:17:11;13.27;;;2.47;;
41875;SDS011;27555;50.808;4.402;2023-01-09T05:19:37;10.00;;;1.27;;
41875;SDS011;27555;50.808;4.402;2023-01-09T05:22:04;10.18;;;1.27;;
41875;SDS011;27555;50.808;4.402;2023-01-09T05:24:30;7.40;;;1.08;;
41875;SDS011;27555;50.808;4.402;2023-01-09T05:26:59;9.02;;;1.38;;
41875;SDS011;27555;50.808;4.402;2023-01-09T05:29:28;8.30;;;1.30;;
41875;SDS011;27555;50.808;4.402;2023-01-09T05:31:54;9.88;;;1.35;;
41875;SDS011;27555;50.808;4.402;2023-01-09T05:34:21;4.68;;;1.30;;
41875;SDS011;27555;50.808;4.402;2023-01-09T05:36:49;12.75;;;1.77;;
41875;SDS011;27555;50.808;4.402;2023-01-09T05:39:21;9.30;;;1.95;;
41875;SDS011;27555;50.808;4.402;2023-01-09T05:41:48;5.75;;;1.30;;
41875;SDS011;27555;50.808;4.402;2023-01-09T05:44:14;5.90;;;1.15;;
41875;SDS011;27555;50.808;4.402;2023-01-09T05:46:43;7.63;;;1.30;;
41875;SDS011;27555;50.808;4.402;2023-01-09T05:49:11;6.32;;;1.20;;
41875;SDS011;27555;50.808;4.402;2023-01-09T05:51:38;4.22;;;1.10;;
41875;SDS011;27555;50.808;4.402;2023-01-09T05:54:05;7.00;;;1.67;;
41875;SDS011;27555;50.808;4.402;2023-01-09T05:56:32;5.55;;;1.20;;
41875;SDS011;27555;50.808;4.402;2023-01-09T05:59:02;5.53;;;1.67;;
41875;SDS011;27555;50.808;4.402;2023-01-09T06:01:31;7.78;;;1.40;;
41875;SDS011;27555;50.808;4.402;2023-01-09T06:03:57;3.42;;;0.80;;
41875;SDS011;27555;50.808;4.402;2023-01-09T06:06:24;7.50;;;1.00;;
41875;SDS011;27555;50.808;4.402;2023-01-09T06:08:49;5.70;;;2.05;;
41875;SDS011;27555;50.808;4.402;2023-01-09T06:11:15;6.60;;;1.02;;
41875;SDS011;27555;50.808;4.402;2023-01-09T06:13:41;5.90;;;1.30;;
41875;SDS011;27555;50.808;4.402;2023-01-09T06:16:07;6.75;;;0.80;;
41875;SDS011;27555;50.808;4.402;2023-01-09T06:18:33;4.63;;;0.93;;
41875;SDS011;27555;50.808;4.402;2023-01-09T06:21:00;3.50;;;0.90;;
41875;SDS011;27555;50.808;4.402;2023-01-09T06:23:25;7.28;;;0.95;;
41875;SDS011;27555;50.808;4.402;2023-01-09T06:25:56;2.70;;;0.82;;
41875;SDS011;27555;50.808;4.402;2023-01-09T06:28:22;3.47;;;0.70;;
41875;SDS011;27555;50.808;4.402;2023-01-09T06:30:50;6.93;;;1.30;;
41875;SDS011;27555;50.808;4.402;2023-01-09T06:33:18;6.10;;;1.33;;
41875;SDS011;27555;50.808;4.402;2023-01-09T06:35:44;6.60;;;1.13;;
41875;SDS011;27555;50.808;4.402;2023-01-09T06:38:09;5.50;;;1.55;;
41875;SDS011;27555;50.808;4.402;2023-01-09T06:40:36;5.60;;;0.90;;
41875;SDS011;27555;50.808;4.402;2023-01-09T06:43:03;5.13;;;0.80;;
41875;SDS011;27555;50.808;4.402;2023-01-09T06:45:28;4.00;;;0.73;;
41875;SDS011;27555;50.808;4.402;2023-01-09T06:47:54;5.68;;;1.60;;
41875;SDS011;27555;50.808;4.402;2023-01-09T06:50:20;6.88;;;1.50;;
41875;SDS011;27555;50.808;4.402;2023-01-09T06:52:45;3.28;;;0.50;;
41875;SDS011;27555;50.808;4.402;2023-01-09T06:55:11;4.97;;;1.20;;
41875;SDS011;27555;50.808;4.402;2023-01-09T06:57:37;4.10;;;0.98;;
41875;SDS011;27555;50.808;4.402;2023-01-09T07:00:03;4.30;;;0.60;;
41875;SDS011;27555;50.808;4.402;2023-01-09T07:02:29;4.50;;;0.80;;
41875;SDS011;27555;50.808;4.402;2023-01-09T07:04:54;4.70;;;0.95;;
41875;SDS011;27555;50.808;4.402;2023-01-09T07:07:20;8.15;;;1.80;;
41875;SDS011;27555;50.808;4.402;2023-01-09T07:09:46;4.55;;;0.90;;
41875;SDS011;27555;50.808;4.402;2023-01-09T07:12:12;5.55;;;1.20;;
41875;SDS011;27555;50.808;4.402;2023-01-09T07:14:39;2.25;;;0.80;;
41875;SDS011;27555;50.808;4.402;2023-01-09T07:17:05;4.90;;;0.80;;
41875;SDS011;27555;50.808;4.402;2023-01-09T07:19:34;6.65;;;1.42;;
41875;SDS011;27555;50.808;4.402;2023-01-09T07:21:59;7.07;;;1.30;;
41875;SDS011;27555;50.808;4.402;2023-01-09T07:24:25;4.18;;;1.10;;
41875;SDS011;27555;50.808;4.402;2023-01-09T07:26:50;6.22;;;1.25;;
41875;SDS011;27555;50.808;4.402;2023-01-09T07:29:16;3.55;;;0.90;;
41875;SDS011;27555;50.808;4.402;2023-01-09T07:31:41;3.78;;;0.90;;
41875;SDS011;27555;50.808;4.402;2023-01-09T07:34:07;6.85;;;1.90;;
41875;SDS011;27555;50.808;4.402;2023-01-09T07:36:32;7.10;;;1.42;;
41875;SDS011;27555;50.808;4.402;2023-01-09T07:38:58;6.30;;;1.40;;
41875;SDS011;27555;50.808;4.402;2023-01-09T07:41:24;9.98;;;1.50;;
41875;SDS011;27555;50.808;4.402;2023-01-09T07:43:50;5.60;;;1.10;;
41875;SDS011;27555;50.808;4.402;2023-01-09T07:46:15;11.43;;;1.27;;
41875;SDS011;27555;50.808;4.402;2023-01-09T07:48:41;6.15;;;1.35;;
41875;SDS011;27555;50.808;4.402;2023-01-09T07:51:09;11.80;;;1.00;;
41875;SDS011;27555;50.808;4.402;2023-01-09T07:53:35;9.43;;;1.60;;
41875;SDS011;27555;50.808;4.402;2023-01-09T07:56:00;8.40;;;1.00;;
41875;SDS011;27555;50.808;4.402;2023-01-09T07:58:26;7.35;;;1.65;;
41875;SDS011;27555;50.808;4.402;2023-01-09T08:00:51;5.50;;;1.02;;
41875;SDS011;27555;50.808;4.402;2023-01-09T08:03:17;5.63;;;1.10;;
41875;SDS011;27555;50.808;4.402;2023-01-09T08:05:43;8.40;;;1.45;;
41875;SDS011;27555;50.808;4.402;2023-01-09T08:08:11;11.68;;;1.58;;
41875;SDS011;27555;50.808;4.402;2023-01-09T08:10:39;6.85;;;1.42;;
41875;SDS011;27555;50.808;4.402;2023-01-09T08:13:06;5.45;;;1.17;;
41875;SDS011;27555;50.808;4.402;2023-01-09T08:15:32;3.58;;;0.98;;
41875;SDS011;27555;50.808;4.402;2023-01-09T08:17:57;9.63;;;2.20;;
41875;SDS011;27555;50.808;4.402;2023-01-09T08:20:23;6.20;;;1.52;;
41875;SDS011;27555;50.808;4.402;2023-01-09T08:22:49;3.67;;;0.85;;
41875;SDS011;27555;50.808;4.402;2023-01-09T08:25:14;8.63;;;1.40;;
41875;SDS011;27555;50.808;4.402;2023-01-09T08:27:41;5.53;;;1.77;;
41875;SDS011;27555;50.808;4.402;2023-01-09T08:30:06;7.78;;;1.83;;
41875;SDS011;27555;50.808;4.402;2023-01-09T08:32:33;10.40;;;1.33;;
41875;SDS011;27555;50.808;4.402;2023-01-09T08:34:59;9.55;;;0.80;;
41875;SDS011;27555;50.808;4.402;2023-01-09T08:37:25;2.78;;;1.05;;
41875;SDS011;27555;50.808;4.402;2023-01-09T08:39:51;4.35;;;0.93;;
41875;SDS011;27555;50.808;4.402;2023-01-09T08:42:17;4.25;;;0.70;;
41875;SDS011;27555;50.808;4.402;2023-01-09T08:45:01;5.55;;;1.02;;
41875;SDS011;27555;50.808;4.402;2023-01-09T08:48:02;2.33;;;0.73;;
41875;SDS011;27555;50.808;4.402;2023-01-09T08:50:28;1.45;;;0.50;;
41875;SDS011;27555;50.808;4.402;2023-01-09T08:52:53;1.23;;;0.88;;
41875;SDS011;27555;50.808;4.402;2023-01-09T08:55:20;3.85;;;0.60;;
41875;SDS011;27555;50.808;4.402;2023-01-09T08:57:46;1.17;;;0.45;;
41875;SDS011;27555;50.808;4.402;2023-01-09T09:00:13;4.40;;;1.10;;
41875;SDS011;27555;50.808;4.402;2023-01-09T09:02:42;3.20;;;0.60;;
41875;SDS011;27555;50.808;4.402;2023-01-09T09:05:10;1.23;;;0.57;;
41875;SDS011;27555;50.808;4.402;2023-01-09T09:07:59;5.25;;;1.05;;
41875;SDS011;27555;50.808;4.402;2023-01-09T09:10:26;3.63;;;0.45;;
41875;SDS011;27555;50.808;4.402;2023-01-09T09:12:54;1.27;;;0.50;;
41875;SDS011;27555;50.808;4.402;2023-01-09T09:15:21;1.25;;;0.43;;
41875;SDS011;27555;50.808;4.402;2023-01-09T09:17:58;3.03;;;0.63;;
41875;SDS011;27555;50.808;4.402;2023-01-09T09:20:27;1.17;;;0.60;;
41875;SDS011;27555;50.808;4.402;2023-01-09T09:22:55;1.47;;;0.50;;
41875;SDS011;27555;50.808;4.402;2023-01-09T09:25:20;2.30;;;0.47;;
41875;SDS011;27555;50.808;4.402;2023-01-09T09:27:47;1.23;;;0.43;;
41875;SDS011;27555;50.808;4.402;2023-01-09T09:30:13;2.58;;;0.85;;
41875;SDS011;27555;50.808;4.402;2023-01-09T09:32:40;0.75;;;0.32;;
41875;SDS011;27555;50.808;4.402;2023-01-09T09:35:06;1.73;;;0.50;;
41875;SDS011;27555;50.808;4.402;2023-01-09T09:37:32;1.30;;;0.32;;
41875;SDS011;27555;50.808;4.402;2023-01-09T09:39:58;1.75;;;0.40;;
41875;SDS011;27555;50.808;4.402;2023-01-09T09:42:28;3.00;;;0.60;;
41875;SDS011;27555;50.808;4.402;2023-01-09T09:48:00;2.15;;;0.40;;
41875;SDS011;27555;50.808;4.402;2023-01-09T09:53:23;1.98;;;0.40;;
41875;SDS011;27555;50.808;4.402;2023-01-09T09:55:55;2.10;;;0.40;;
41875;SDS011;27555;50.808;4.402;2023-01-09T09:58:23;0.85;;;0.55;;
41875;SDS011;27555;50.808;4.402;2023-01-09T10:00:54;1.63;;;0.50;;
41875;SDS011;27555;50.808;4.402;2023-01-09T10:03:26;1.98;;;0.52;;
41875;SDS011;27555;50.808;4.402;2023-01-09T10:06:14;3.72;;;0.55;;
41875;SDS011;27555;50.808;4.402;2023-01-09T10:11:40;2.13;;;0.55;;
41875;SDS011;27555;50.808;4.402;2023-01-09T10:14:11;1.60;;;0.40;;
41875;SDS011;27555;50.808;4.402;2023-01-09T10:16:40;2.22;;;0.40;;
41875;SDS011;27555;50.808;4.402;2023-01-09T10:27:20;2.00;;;0.80;;
41875;SDS011;27555;50.808;4.402;2023-01-09T10:35:51;0.38;;;0.30;;
41875;SDS011;27555;50.808;4.402;2023-01-09T10:38:37;4.18;;;0.50;;
41875;SDS011;27555;50.808;4.402;2023-01-09T10:41:09;1.73;;;0.40;;
41875;SDS011;27555;50.808;4.402;2023-01-09T10:43:46;0.63;;;0.30;;
41875;SDS011;27555;50.808;4.402;2023-01-09T10:46:40;2.20;;;0.65;;
41875;SDS011;27555;50.808;4.402;2023-01-09T10:49:16;7.28;;;0.60;;
41875;SDS011;27555;50.808;4.402;2023-01-09T10:51:45;3.80;;;0.80;;
41875;SDS011;27555;50.808;4.402;2023-01-09T10:54:16;4.15;;;0.57;;
41875;SDS011;27555;50.808;4.402;2023-01-09T10:56:55;1.77;;;0.57;;
41875;SDS011;27555;50.808;4.402;2023-01-09T10:59:26;1.63;;;0.65;;
41875;SDS011;27555;50.808;4.402;2023-01-09T11:01:51;1.88;;;0.52;;
41875;SDS011;27555;50.808;4.402;2023-01-09T11:04:25;1.85;;;0.65;;
41875;SDS011;27555;50.808;4.402;2023-01-09T11:07:14;2.22;;;0.85;;
41875;SDS011;27555;50.808;4.402;2023-01-09T11:09:53;2.60;;;0.50;;
41875;SDS011;27555;50.808;4.402;2023-01-09T11:12:26;2.00;;;0.63;;
41875;SDS011;27555;50.808;4.402;2023-01-09T11:14:53;2.80;;;0.50;;
41875;SDS011;27555;50.808;4.402;2023-01-09T11:17:20;9.32;;;2.15;;
41875;SDS011;27555;50.808;4.402;2023-01-09T11:22:24;1.83;;;0.65;;
41875;SDS011;27555;50.808;4.402;2023-01-09T11:25:00;2.35;;;0.80;;
41875;SDS011;27555;50.808;4.402;2023-01-09T11:27:26;4.00;;;0.50;;
41875;SDS011;27555;50.808;4.402;2023-01-09T11:32:33;1.25;;;0.50;;
41875;SDS011;27555;50.808;4.402;2023-01-09T11:34:59;10.90;;;0.75;;
41875;SDS011;27555;50.808;4.402;2023-01-09T11:37:28;3.22;;;0.60;;
41875;SDS011;27555;50.808;4.402;2023-01-09T11:39:56;4.28;;;1.00;;
41875;SDS011;27555;50.808;4.402;2023-01-09T11:42:24;1.83;;;0.70;;
41875;SDS011;27555;50.808;4.402;2023-01-09T11:47:42;3.15;;;0.50;;
41875;SDS011;27555;50.808;4.402;2023-01-09T11:50:15;1.75;;;0.60;;
41875;SDS011;27555;50.808;4.402;2023-01-09T11:52:43;9.52;;;0.98;;
41875;SDS011;27555;50.808;4.402;2023-01-09T11:55:13;4.63;;;0.95;;
41875;SDS011;27555;50.808;4.402;2023-01-09T11:57:41;3.70;;;0.50;;
41875;SDS011;27555;50.808;4.402;2023-01-09T12:00:19;2.47;;;0.90;;
41875;SDS011;27555;50.808;4.402;2023-01-09T12:02:56;3.35;;;1.35;;
41875;SDS011;27555;50.808;4.402;2023-01-09T12:05:42;4.68;;;1.48;;
41875;SDS011;27555;50.808;4.402;2023-01-09T12:08:26;6.68;;;1.67;;
41875;SDS011;27555;50.808;4.402;2023-01-09T12:18:39;3.22;;;0.80;;
41875;SDS011;27555;50.808;4.402;2023-01-09T12:21:25;3.58;;;1.00;;
41875;SDS011;27555;50.808;4.402;2023-01-09T12:23:56;5.45;;;1.10;;
41875;SDS011;27555;50.808;4.402;2023-01-09T12:31:58;6.90;;;1.45;;
41875;SDS011;27555;50.808;4.402;2023-01-09T12:43:11;4.45;;;1.00;;
41875;SDS011;27555;50.808;4.402;2023-01-09T12:51:30;5.80;;;1.40;;
41875;SDS011;27555;50.808;4.402;2023-01-09T12:56:44;11.48;;;1.55;;
41875;SDS011;27555;50.808;4.402;2023-01-09T12:59:30;2.33;;;1.13;;
41875;SDS011;27555;50.808;4.402;2023-01-09T13:02:05;7.20;;;1.58;;
41875;SDS011;27555;50.808;4.402;2023-01-09T13:04:39;7.80;;;1.55;;
41875;SDS011;27555;50.808;4.402;2023-01-09T13:07:16;9.82;;;1.92;;
41875;SDS011;27555;50.808;4.402;2023-01-09T13:09:49;10.27;;;2.28;;
41875;SDS011;27555;50.808;4.402;2023-01-09T13:12:37;8.93;;;2.50;;
41875;SDS011;27555;50.808;4.402;2023-01-09T13:15:06;6.47;;;1.40;;
41875;SDS011;27555;50.808;4.402;2023-01-09T13:17:49;5.45;;;1.60;;
41875;SDS011;27555;50.808;4.402;2023-01-09T13:22:49;4.75;;;1.50;;
41875;SDS011;27555;50.808;4.402;2023-01-09T13:28:23;10.25;;;1.70;;
41875;SDS011;27555;50.808;4.402;2023-01-09T13:34:03;12.57;;;2.55;;
41875;SDS011;27555;50.808;4.402;2023-01-09T13:36:35;9.52;;;2.05;;
41875;SDS011;27555;50.808;4.402;2023-01-09T13:39:03;8.52;;;2.80;;
41875;SDS011;27555;50.808;4.402;2023-01-09T13:41:30;14.70;;;3.90;;
41875;SDS011;27555;50.808;4.402;2023-01-09T13:44:25;15.18;;;3.22;;
41875;SDS011;27555;50.808;4.402;2023-01-09T13:46:56;14.88;;;4.25;;
41875;SDS011;27555;50.808;4.402;2023-01-09T13:59:44;12.77;;;3.17;;
41875;SDS011;27555;50.808;4.402;2023-01-09T14:04:59;9.90;;;1.98;;
41875;SDS011;27555;50.808;4.402;2023-01-09T14:07:27;9.85;;;2.40;;
41875;SDS011;27555;50.808;4.402;2023-01-09T14:09:57;8.30;;;2.05;;
41875;SDS011;27555;50.808;4.402;2023-01-09T14:12:28;11.52;;;2.10;;
41875;SDS011;27555;50.808;4.402;2023-01-09T14:14:57;16.17;;;1.80;;
41875;SDS011;27555;50.808;4.402;2023-01-09T14:17:30;14.05;;;3.00;;
41875;SDS011;27555;50.808;4.402;2023-01-09T14:19:59;11.52;;;1.67;;
41875;SDS011;27555;50.808;4.402;2023-01-09T14:22:29;7.05;;;1.80;;
41875;SDS011;27555;50.808;4.402;2023-01-09T14:25:07;9.95;;;1.70;;
41875;SDS011;27555;50.808;4.402;2023-01-09T14:41:23;10.00;;;1.75;;
41875;SDS011;27555;50.808;4.402;2023-01-09T14:47:16;7.18;;;1.45;;
41875;SDS011;27555;50.808;4.402;2023-01-09T14:49:59;10.90;;;1.70;;
41875;SDS011;27555;50.808;4.402;2023-01-09T14:55:00;7.30;;;1.38;;
41875;SDS011;27555;50.808;4.402;2023-01-09T14:57:29;9.10;;;2.22;;
41875;SDS011;27555;50.808;4.402;2023-01-09T14:59:56;6.07;;;2.05;;
41875;SDS011;27555;50.808;4.402;2023-01-09T15:02:29;7.80;;;2.00;;
41875;SDS011;27555;50.808;4.402;2023-01-09T15:05:01;4.85;;;1.45;;
41875;SDS011;27555;50.808;4.402;2023-01-09T15:07:33;25.02;;;6.03;;
41875;SDS011;27555;50.808;4.402;2023-01-09T15:12:59;13.20;;;2.28;;
41875;SDS011;27555;50.808;4.402;2023-01-09T15:15:27;9.20;;;1.67;;
41875;SDS011;27555;50.808;4.402;2023-01-09T15:17:57;10.90;;;2.08;;
41875;SDS011;27555;50.808;4.402;2023-01-09T15:20:25;11.70;;;1.55;;
41875;SDS011;27555;50.808;4.402;2023-01-09T15:22:53;12.02;;;2.63;;
41875;SDS011;27555;50.808;4.402;2023-01-09T15:27:54;5.97;;;1.20;;
41875;SDS011;27555;50.808;4.402;2023-01-09T15:30:26;8.05;;;1.42;;
41875;SDS011;27555;50.808;4.402;2023-01-09T15:32:58;7.88;;;1.63;;
41875;SDS011;27555;50.808;4.402;2023-01-09T15:35:26;11.82;;;2.55;;
41875;SDS011;27555;50.808;4.402;2023-01-09T15:37:52;4.95;;;1.42;;
41875;SDS011;27555;50.808;4.402;2023-01-09T15:40:22;2.72;;;1.38;;
41875;SDS011;27555;50.808;4.402;2023-01-09T15:42:57;7.95;;;1.50;;
41875;SDS011;27555;50.808;4.402;2023-01-09T15:51:03;3.97;;;1.23;;
41875;SDS011;27555;50.808;4.402;2023-01-09T15:53:38;6.93;;;1.23;;
41875;SDS011;27555;50.808;4.402;2023-01-09T15:56:06;7.93;;;1.35;;
41875;SDS011;27555;50.808;4.402;2023-01-09T15:58:57;8.75;;;1.48;;
41875;SDS011;27555;50.808;4.402;2023-01-09T16:06:33;5.97;;;1.42;;
41875;SDS011;27555;50.808;4.402;2023-01-09T16:09:01;5.80;;;1.85;;
41875;SDS011;27555;50.808;4.402;2023-01-09T16:11:29;7.20;;;1.08;;
41875;SDS011;27555;50.808;4.402;2023-01-09T16:16:41;8.63;;;1.33;;
41875;SDS011;27555;50.808;4.402;2023-01-09T16:21:56;8.65;;;1.80;;
41875;SDS011;27555;50.808;4.402;2023-01-09T16:24:27;16.17;;;3.58;;
41875;SDS011;27555;50.808;4.402;2023-01-09T16:29:59;4.78;;;1.80;;
41875;SDS011;27555;50.808;4.402;2023-01-09T16:32:44;10.38;;;3.10;;
41875;SDS011;27555;50.808;4.402;2023-01-09T16:35:15;10.07;;;2.00;;
41875;SDS011;27555;50.808;4.402;2023-01-09T16:37:43;12.05;;;2.67;;
41875;SDS011;27555;50.808;4.402;2023-01-09T16:42:50;7.10;;;1.80;;
41875;SDS011;27555;50.808;4.402;2023-01-09T16:47:56;45.10;;;2.78;;
41875;SDS011;27555;50.808;4.402;2023-01-09T16:50:22;8.63;;;3.22;;
41875;SDS011;27555;50.808;4.402;2023-01-09T16:52:48;7.05;;;2.35;;
41875;SDS011;27555;50.808;4.402;2023-01-09T16:55:14;10.63;;;2.35;;
41875;SDS011;27555;50.808;4.402;2023-01-09T16:57:40;12.80;;;2.58;;
41875;SDS011;27555;50.808;4.402;2023-01-09T17:00:12;14.82;;;2.78;;
41875;SDS011;27555;50.808;4.402;2023-01-09T17:02:42;11.77;;;3.10;;
41875;SDS011;27555;50.808;4.402;2023-01-09T17:05:09;10.68;;;2.60;;
41875;SDS011;27555;50.808;4.402;2023-01-09T17:07:35;13.73;;;2.75;;
41875;SDS011;27555;50.808;4.402;2023-01-09T17:10:01;12.20;;;2.80;;
41875;SDS011;27555;50.808;4.402;2023-01-09T17:12:28;6.70;;;2.60;;
41875;SDS011;27555;50.808;4.402;2023-01-09T17:14:54;8.23;;;3.35;;
41875;SDS011;27555;50.808;4.402;2023-01-09T17:17:20;7.75;;;3.33;;
41875;SDS011;27555;50.808;4.402;2023-01-09T17:19:45;9.48;;;3.35;;
41875;SDS011;27555;50.808;4.402;2023-01-09T17:22:12;12.23;;;2.90;;
41875;SDS011;27555;50.808;4.402;2023-01-09T17:24:38;11.45;;;3.00;;
41875;SDS011;27555;50.808;4.402;2023-01-09T17:27:27;13.50;;;3.63;;
41875;SDS011;27555;50.808;4.402;2023-01-09T17:30:18;9.40;;;3.45;;
41875;SDS011;27555;50.808;4.402;2023-01-09T17:32:44;12.57;;;3.50;;
41875;SDS011;27555;50.808;4.402;2023-01-09T17:35:12;11.48;;;3.15;;
41875;SDS011;27555;50.808;4.402;2023-01-09T17:37:39;15.95;;;6.45;;
41875;SDS011;27555;50.808;4.402;2023-01-09T17:40:18;10.73;;;4.72;;
41875;SDS011;27555;50.808;4.402;2023-01-09T17:42:45;19.10;;;5.88;;
41875;SDS011;27555;50.808;4.402;2023-01-09T17:45:11;32.63;;;12.23;;
41875;SDS011;27555;50.808;4.402;2023-01-09T17:47:37;16.90;;;5.38;;
41875;SDS011;27555;50.808;4.402;2023-01-09T17:50:03;15.70;;;4.10;;
41875;SDS011;27555;50.808;4.402;2023-01-09T17:52:34;9.90;;;3.22;;
41875;SDS011;27555;50.808;4.402;2023-01-09T17:55:00;6.25;;;2.65;;